SWA636 KFAT-KSAN
Flight info
| Callsign | SWA636 |
|---|---|
| Flight time | N/A |
| Altitude | 29000 |
| Route | BULL3 NTELL FRAME EHF HUULK COMIX2 |
| Aircraft | B738/M-SDE3/STD |
Departure
| Time | 2026-04-25 19:11 |
|---|---|
| Airport | Fresno Yosemite International Airport (KFAT) |
Arrival
| Time | N/A |
|---|---|
| Airport | San Diego International Airport (KSAN) |
| Time | Latitude | Longitude | Altitude | Speed | Heading |
|---|---|---|---|---|---|
| 2026-04-25 18:50 | 36.77221 | -119.71825 | 331 ft | 0 kts | 195° |
| 2026-04-25 19:00 | 36.77237 | -119.71820 | 332 ft | 4 kts | 195° |
| 2026-04-25 19:01 | 36.77271 | -119.71812 | 332 ft | 1 kts | 168° |
| 2026-04-25 19:01 | 36.77283 | -119.71818 | 332 ft | 1 kts | 146° |
| 2026-04-25 19:01 | 36.77292 | -119.71828 | 332 ft | 1 kts | 123° |
| 2026-04-25 19:01 | 36.77297 | -119.71843 | 332 ft | 1 kts | 106° |
| 2026-04-25 19:02 | 36.77298 | -119.71846 | 332 ft | 0 kts | 105° |
| 2026-04-25 19:07 | 36.77271 | -119.71796 | 333 ft | 9 kts | 128° |
| 2026-04-25 19:07 | 36.77222 | -119.71712 | 333 ft | 12 kts | 125° |
| 2026-04-25 19:08 | 36.77155 | -119.71477 | 333 ft | 20 kts | 125° |
| 2026-04-25 19:08 | 36.77077 | -119.71342 | 331 ft | 18 kts | 125° |
| 2026-04-25 19:09 | 36.76994 | -119.71114 | 333 ft | 0 kts | 43° |
| 2026-04-25 19:10 | 36.76999 | -119.71108 | 333 ft | 4 kts | 44° |
| 2026-04-25 19:10 | 36.77043 | -119.71067 | 333 ft | 11 kts | 16° |
| 2026-04-25 19:10 | 36.77139 | -119.71193 | 333 ft | 52 kts | 304° |
| 2026-04-25 19:10 | 36.77547 | -119.71915 | 335 ft | 149 kts | 306° |
| 2026-04-25 19:11 | 36.78235 | -119.73108 | 977 ft | 185 kts | 307° |
| 2026-04-25 19:11 | 36.79047 | -119.74436 | 1853 ft | 212 kts | 309° |
| 2026-04-25 19:11 | 36.79864 | -119.76160 | 2520 ft | 251 kts | 300° |
| 2026-04-25 19:11 | 36.80700 | -119.78112 | 3172 ft | 260 kts | 299° |
| 2026-04-25 19:12 | 36.81292 | -119.80255 | 3713 ft | 264 kts | 278° |
| 2026-04-25 19:12 | 36.81182 | -119.82531 | 4268 ft | 268 kts | 256° |
| 2026-04-25 19:12 | 36.80402 | -119.84624 | 4816 ft | 271 kts | 234° |
| 2026-04-25 19:12 | 36.79022 | -119.86207 | 5396 ft | 272 kts | 211° |
| 2026-04-25 19:13 | 36.77434 | -119.87509 | 5980 ft | 276 kts | 211° |
| 2026-04-25 19:13 | 36.75776 | -119.88711 | 6505 ft | 277 kts | 200° |
| 2026-04-25 19:13 | 36.73895 | -119.89139 | 7064 ft | 276 kts | 178° |
| 2026-04-25 19:13 | 36.72033 | -119.88735 | 7621 ft | 276 kts | 162° |
| 2026-04-25 19:14 | 36.70181 | -119.88063 | 8200 ft | 279 kts | 162° |
| 2026-04-25 19:14 | 36.69554 | -119.87833 | 8386 ft | 279 kts | 162° |
| 2026-04-25 19:14 | 36.66562 | -119.86432 | 9267 ft | 280 kts | 144° |
| 2026-04-25 19:14 | 36.65131 | -119.84795 | 9850 ft | 280 kts | 132° |
| 2026-04-25 19:15 | 36.63789 | -119.83023 | 10404 ft | 283 kts | 132° |
| 2026-04-25 19:15 | 36.62432 | -119.81220 | 11002 ft | 294 kts | 132° |
| 2026-04-25 19:15 | 36.61034 | -119.79353 | 11595 ft | 294 kts | 132° |
| 2026-04-25 19:15 | 36.59661 | -119.77497 | 12145 ft | 292 kts | 131° |
| 2026-04-25 19:16 | 36.58286 | -119.75666 | 12671 ft | 290 kts | 133° |
| 2026-04-25 19:16 | 36.56979 | -119.73943 | 13189 ft | 289 kts | 132° |
| 2026-04-25 19:16 | 36.55619 | -119.72126 | 13730 ft | 288 kts | 132° |
| 2026-04-25 19:16 | 36.54244 | -119.70293 | 14280 ft | 287 kts | 132° |
| 2026-04-25 19:17 | 36.52868 | -119.68504 | 14820 ft | 286 kts | 136° |
| 2026-04-25 19:17 | 36.51391 | -119.66858 | 15376 ft | 290 kts | 137° |
| 2026-04-25 19:17 | 36.49851 | -119.65152 | 15968 ft | 310 kts | 137° |
| 2026-04-25 19:17 | 36.48190 | -119.63316 | 16622 ft | 326 kts | 137° |
| 2026-04-25 19:18 | 36.46471 | -119.61417 | 17289 ft | 341 kts | 137° |
| 2026-04-25 19:18 | 36.44677 | -119.59437 | 17958 ft | 355 kts | 137° |
| 2026-04-25 19:18 | 36.42782 | -119.57393 | 18619 ft | 368 kts | 141° |
| 2026-04-25 19:18 | 36.40530 | -119.55853 | 19187 ft | 371 kts | 157° |
| 2026-04-25 19:19 | 36.38034 | -119.55110 | 19725 ft | 371 kts | 168° |
| 2026-04-25 19:19 | 36.35596 | -119.54155 | 20253 ft | 366 kts | 153° |
| 2026-04-25 19:19 | 36.33274 | -119.52899 | 20827 ft | 366 kts | 155° |
| 2026-04-25 19:19 | 36.32468 | -119.52479 | 21010 ft | 366 kts | 155° |
| 2026-04-25 19:20 | 36.28592 | -119.50482 | 21905 ft | 364 kts | 155° |
| 2026-04-25 19:20 | 36.26239 | -119.49273 | 22451 ft | 363 kts | 155° |
| 2026-04-25 19:20 | 36.23946 | -119.48096 | 22984 ft | 363 kts | 155° |
| 2026-04-25 19:20 | 36.21601 | -119.46892 | 23500 ft | 362 kts | 155° |
| 2026-04-25 19:21 | 36.19288 | -119.45705 | 23926 ft | 362 kts | 155° |
| 2026-04-25 19:21 | 36.14663 | -119.43335 | 24809 ft | 360 kts | 154° |
| 2026-04-25 19:21 | 36.12390 | -119.42171 | 25221 ft | 360 kts | 154° |
| 2026-04-25 19:22 | 36.10061 | -119.40978 | 25552 ft | 359 kts | 154° |
| 2026-04-25 19:22 | 36.07775 | -119.39809 | 25892 ft | 358 kts | 154° |
| 2026-04-25 19:22 | 36.03188 | -119.37466 | 26576 ft | 357 kts | 154° |
| 2026-04-25 19:23 | 36.00891 | -119.36294 | 26918 ft | 357 kts | 154° |
| 2026-04-25 19:23 | 35.96315 | -119.33961 | 27563 ft | 357 kts | 155° |
| 2026-04-25 19:23 | 35.94051 | -119.32808 | 27873 ft | 356 kts | 155° |
| 2026-04-25 19:24 | 35.91759 | -119.31641 | 28190 ft | 355 kts | 154° |
| 2026-04-25 19:24 | 35.89498 | -119.30490 | 28497 ft | 355 kts | 154° |
| 2026-04-25 19:24 | 35.84943 | -119.28174 | 28919 ft | 356 kts | 154° |
| 2026-04-25 19:25 | 35.80189 | -119.25758 | 28987 ft | 389 kts | 154° |
| 2026-04-25 19:25 | 35.75098 | -119.23137 | 28955 ft | 392 kts | 155° |
| 2026-04-25 19:26 | 35.70048 | -119.20615 | 28964 ft | 389 kts | 155° |
| 2026-04-25 19:26 | 35.64981 | -119.18059 | 28964 ft | 390 kts | 155° |
| 2026-04-25 19:27 | 35.61630 | -119.16367 | 28962 ft | 390 kts | 155° |
| 2026-04-25 19:27 | 35.54902 | -119.12974 | 28959 ft | 390 kts | 155° |
| 2026-04-25 19:28 | 35.49902 | -119.10457 | 28957 ft | 390 kts | 155° |
| 2026-04-25 19:28 | 35.44954 | -119.07725 | 28946 ft | 389 kts | 151° |
| 2026-04-25 19:29 | 35.40015 | -119.04992 | 28955 ft | 390 kts | 153° |
| 2026-04-25 19:29 | 35.35087 | -119.02235 | 28945 ft | 388 kts | 151° |